Time;durP1;ratioP1;P1;durP2;ratioP2;P2;SDS_P1;SDS_P2;PMS_P1;PMS_P2;Temp;Humidity;BMP_temperature;BMP_pressure;BME280_temperature;BME280_humidity;BME280_pressure;Samples;Min_cycle;Max_cycle;Signal;HPM_P1;HPM_P2
2023/06/19 00:01:42;;;;;;;5.30;4.72;;;;;;;20.77;100.00;100170.59;6237203;28;20041;-89
2023/06/19 00:04:44;;;;;;;5.45;4.75;;;;;;;20.81;100.00;100169.19;6246378;28;20045;-89
2023/06/19 00:07:46;;;;;;;7.45;4.88;;;;;;;20.84;100.00;100170.59;6250834;28;20329;-89
2023/06/19 00:10:48;;;;;;;5.10;4.60;;;;;;;20.81;100.00;100163.94;6239495;28;20479;-89
2023/06/19 00:13:50;;;;;;;6.30;5.00;;;;;;;20.81;100.00;100171.00;6242005;28;20466;-89
2023/06/19 00:16:51;;;;;;;4.55;3.90;;;;;;;20.80;100.00;100164.94;6240848;28;20069;-89
2023/06/19 00:19:53;;;;;;;8.20;4.40;;;;;;;20.81;100.00;100161.28;6229968;28;20069;-89
2023/06/19 00:22:55;;;;;;;6.13;5.20;;;;;;;20.80;100.00;100164.94;6252684;28;20048;-89
2023/06/19 00:25:57;;;;;;;5.15;4.65;;;;;;;20.78;100.00;100159.06;6251848;28;20049;-89
2023/06/19 00:28:59;;;;;;;5.50;4.90;;;;;;;20.76;100.00;100152.38;6252211;28;20507;-89
2023/06/19 00:32:03;;;;;;;5.88;4.75;;;;;;;20.73;100.00;100158.84;6251415;28;20049;-89
2023/06/19 00:35:05;;;;;;;6.20;5.15;;;;;;;20.68;100.00;100153.38;6242164;28;20049;-89
2023/06/19 00:38:07;;;;;;;6.35;5.10;;;;;;;20.64;100.00;100142.44;6253023;28;20048;-89
2023/06/19 00:41:09;;;;;;;5.60;4.95;;;;;;;20.60;100.00;100143.03;6240080;28;20046;-89
2023/06/19 00:44:11;;;;;;;5.63;5.03;;;;;;;20.57;100.00;100143.38;6234257;28;20045;-89
2023/06/19 00:47:13;;;;;;;5.28;4.78;;;;;;;20.55;100.00;100137.53;6227899;28;20382;-89
2023/06/19 00:50:15;;;;;;;5.72;5.03;;;;;;;20.54;100.00;100136.69;6228798;28;20049;-89
2023/06/19 00:53:19;;;;;;;5.43;4.93;;;;;;;20.51;100.00;100129.19;6258273;28;20128;-89
2023/06/19 00:56:21;;;;;;;5.53;4.95;;;;;;;20.52;100.00;100122.09;6249422;28;20044;-89
2023/06/19 00:59:25;;;;;;;5.55;5.05;;;;;;;20.51;100.00;100126.56;6241004;28;20125;-89
2023/06/19 01:02:27;;;;;;;5.10;4.63;;;;;;;20.50;100.00;100119.69;6219327;28;20062;-89
2023/06/19 01:05:29;;;;;;;5.97;4.88;;;;;;;20.50;100.00;100117.06;6237753;28;20807;-89
2023/06/19 01:08:58;;;;;;;5.20;4.60;;;;;;;20.48;100.00;100124.31;6238590;28;20037;-89
2023/06/19 01:12:16;;;;;;;7.18;4.72;;;;;;;20.47;100.00;100125.34;6240019;28;20033;-89
2023/06/19 01:15:19;;;;;;;5.60;5.00;;;;;;;20.47;100.00;100124.50;6247700;28;20049;-89
2023/06/19 01:18:21;;;;;;;7.82;4.70;;;;;;;20.42;100.00;100125.94;6252830;28;20377;-89
2023/06/19 01:21:23;;;;;;;5.43;4.65;;;;;;;20.42;100.00;100131.19;6261816;28;20052;-88
2023/06/19 01:24:25;;;;;;;5.72;5.13;;;;;;;20.39;100.00;100113.16;6248693;28;20045;-89
2023/06/19 01:27:33;;;;;;;6.30;4.75;;;;;;;20.38;100.00;100116.00;6240781;28;20495;-89
2023/06/19 01:30:37;;;;;;;5.10;4.60;;;;;;;20.35;100.00;100108.50;6245866;28;20044;-88
2023/06/19 01:33:41;;;;;;;5.32;4.80;;;;;;;20.34;100.00;100102.41;6243302;28;20076;-89
2023/06/19 01:36:44;;;;;;;5.93;4.68;;;;;;;20.30;100.00;100103.81;6237404;28;20048;-89
2023/06/19 01:39:46;;;;;;;5.72;5.22;;;;;;;20.26;100.00;100107.84;6236693;28;20051;-89
2023/06/19 01:42:48;;;;;;;5.53;4.70;;;;;;;20.21;100.00;100107.63;6244182;28;20037;-89
2023/06/19 01:45:50;;;;;;;5.50;5.00;;;;;;;20.13;100.00;100105.97;6234785;28;20083;-88
2023/06/19 01:48:53;;;;;;;5.75;4.90;;;;;;;20.02;100.00;100103.84;6245911;28;20094;-88
2023/06/19 01:51:57;;;;;;;6.82;5.05;;;;;;;19.89;100.00;100098.53;6242037;28;20124;-88
2023/06/19 01:54:59;;;;;;;5.90;5.35;;;;;;;19.75;100.00;100103.72;6253575;28;20568;-88
2023/06/19 01:58:01;;;;;;;7.38;5.32;;;;;;;19.65;100.00;100120.75;6247742;28;20056;-88
2023/06/19 02:01:04;;;;;;;7.10;5.32;;;;;;;19.56;100.00;100120.09;6236025;28;20045;-88
2023/06/19 02:04:05;;;;;;;5.82;5.32;;;;;;;19.51;100.00;100120.66;6249294;28;20034;-88
2023/06/19 02:07:07;;;;;;;5.97;5.35;;;;;;;19.53;100.00;100108.16;6243480;28;20056;-88
2023/06/19 02:10:09;;;;;;;6.55;5.05;;;;;;;19.61;100.00;100106.41;6225433;28;20067;-88
2023/06/19 02:13:11;;;;;;;5.30;4.80;;;;;;;19.64;100.00;100096.31;6228041;28;20506;-88
2023/06/19 02:16:13;;;;;;;5.38;4.88;;;;;;;19.72;100.00;100082.25;6243451;28;20052;-88
2023/06/19 02:19:15;;;;;;;5.55;5.05;;;;;;;19.79;100.00;100083.13;6245432;28;20474;-88
2023/06/19 02:22:18;;;;;;;7.93;5.63;;;;;;;19.89;100.00;100077.53;6246259;28;20510;-88
2023/06/19 02:25:20;;;;;;;6.18;5.10;;;;;;;19.95;100.00;100077.56;6257562;28;20057;-88
2023/06/19 02:28:22;;;;;;;5.75;5.15;;;;;;;20.00;100.00;100067.28;6243856;28;20056;-88
2023/06/19 02:31:24;;;;;;;7.57;4.72;;;;;;;20.04;100.00;100059.81;6256643;28;20661;-88
2023/06/19 02:34:26;;;;;;;7.15;5.38;;;;;;;20.08;100.00;100065.50;6238138;28;20527;-89
2023/06/19 02:37:29;;;;;;;5.40;4.75;;;;;;;20.11;100.00;100062.50;6232473;28;20683;-88
2023/06/19 02:40:31;;;;;;;5.30;4.80;;;;;;;20.14;100.00;100055.00;6236999;28;20037;-88
2023/06/19 02:43:33;;;;;;;5.68;4.47;;;;;;;20.19;100.00;100057.84;6237012;28;20072;-89
2023/06/19 02:46:34;;;;;;;6.50;5.03;;;;;;;20.21;100.00;100055.84;6243852;28;20395;-88
2023/06/19 02:49:36;;;;;;;7.93;5.10;;;;;;;20.31;100.00;100059.94;6244716;28;20053;-88
2023/06/19 02:52:38;;;;;;;5.95;5.35;;;;;;;20.34;100.00;100056.91;6235952;28;20045;-88
2023/06/19 02:55:40;;;;;;;6.28;4.93;;;;;;;20.34;100.00;100049.84;6237077;28;20407;-88
2023/06/19 02:58:42;;;;;;;5.18;4.57;;;;;;;20.35;100.00;100043.59;6256371;28;20041;-88
2023/06/19 03:01:44;;;;;;;6.50;5.10;;;;;;;20.40;100.00;100049.06;6229710;28;20040;-88
2023/06/19 03:04:47;;;;;;;5.22;4.38;;;;;;;20.47;100.00;100041.22;6215917;28;20073;-88
2023/06/19 03:07:49;;;;;;;6.57;5.03;;;;;;;20.47;100.00;100046.47;6239869;28;20046;-88
2023/06/19 03:10:51;;;;;;;5.70;4.97;;;;;;;20.51;100.00;100042.41;6240789;28;20139;-88
2023/06/19 03:13:56;;;;;;;5.60;5.07;;;;;;;20.52;100.00;100044.06;6250516;28;20506;-88
2023/06/19 03:16:58;;;;;;;5.68;5.07;;;;;;;20.55;100.00;100048.94;6241274;28;20517;-88
2023/06/19 03:20:02;;;;;;;5.82;5.20;;;;;;;20.51;100.00;100058.19;6242688;28;20052;-88
2023/06/19 03:23:04;;;;;;;5.85;5.32;;;;;;;20.44;100.00;100060.78;6227754;28;20045;-88
2023/06/19 03:26:07;;;;;;;5.15;4.63;;;;;;;20.39;100.00;100057.13;6248485;28;20481;-88
2023/06/19 03:29:11;;;;;;;6.07;4.88;;;;;;;20.33;100.00;100061.38;6249070;28;20087;-88
2023/06/19 03:32:29;;;;;;;5.57;5.05;;;;;;;20.30;100.00;100061.78;6244693;28;20593;-88
2023/06/19 03:35:34;;;;;;;5.68;4.70;;;;;;;20.31;100.00;100065.19;6228991;28;20380;-88
2023/06/19 03:38:36;;;;;;;7.03;4.95;;;;;;;20.32;100.00;100062.38;6234339;28;20046;-88
2023/06/19 03:41:39;;;;;;;6.68;5.30;;;;;;;20.34;100.00;100070.88;6236359;28;20053;-88
2023/06/19 03:44:40;;;;;;;5.57;5.05;;;;;;;20.30;100.00;100061.78;6260676;28;20052;-88
2023/06/19 03:47:42;;;;;;;5.90;5.32;;;;;;;20.29;100.00;100069.84;6243431;28;20140;-88
2023/06/19 03:50:44;;;;;;;5.88;5.28;;;;;;;20.28;100.00;100062.97;6236644;28;20056;-88
2023/06/19 03:53:46;;;;;;;8.80;5.72;;;;;;;20.23;100.00;100072.25;6245765;28;20139;-88
2023/06/19 03:56:51;;;;;;;6.18;5.07;;;;;;;20.24;100.00;100073.06;6240758;28;20049;-88
2023/06/19 03:59:53;;;;;;;8.77;5.25;;;;;;;20.27;100.00;100080.53;6230826;28;20041;-88
2023/06/19 04:02:56;;;;;;;6.35;5.47;;;;;;;20.27;100.00;100075.28;6259097;28;20399;-88
2023/06/19 04:05:58;;;;;;;5.60;5.10;;;;;;;20.28;100.00;100070.84;6257560;28;20073;-88
2023/06/19 04:09:00;;;;;;;5.53;4.97;;;;;;;20.35;100.00;100075.13;6242385;28;20557;-88
2023/06/19 04:12:02;;;;;;;6.63;5.95;;;;;;;20.32;100.00;100072.91;6238788;28;20045;-88
2023/06/19 04:15:04;;;;;;;5.97;5.38;;;;;;;20.32;100.00;100072.91;6252780;28;20045;-88
2023/06/19 04:18:07;;;;;;;5.50;4.57;;;;;;;20.33;100.00;100073.72;6256816;28;20061;-88
2023/06/19 04:21:11;;;;;;;5.82;5.25;;;;;;;20.35;100.00;100077.75;6257248;28;20048;-88
2023/06/19 04:24:13;;;;;;;6.50;5.78;;;;;;;20.36;100.00;100074.13;6223186;28;20519;-88
2023/06/19 04:27:15;;;;;;;8.13;5.25;;;;;;;20.35;100.00;100083.03;6246066;28;20558;-88
2023/06/19 04:30:16;;;;;;;6.18;5.57;;;;;;;20.35;100.00;100079.59;6245032;28;20504;-88
2023/06/19 04:33:21;;;;;;;6.18;5.57;;;;;;;20.46;100.00;100079.00;6256331;28;20064;-88
2023/06/19 04:36:24;;;;;;;5.95;5.38;;;;;;;20.42;100.00;100073.34;6240217;28;20050;-89
2023/06/19 04:39:26;;;;;;;6.00;5.25;;;;;;;20.47;100.00;100062.25;6240128;28;20186;-88
2023/06/19 04:42:27;;;;;;;6.55;5.38;;;;;;;20.49;100.00;100075.97;6242451;28;20492;-88
2023/06/19 04:45:29;;;;;;;5.78;5.13;;;;;;;20.46;100.00;100067.69;6242232;28;20044;-88
2023/06/19 04:48:31;;;;;;;6.40;5.70;;;;;;;20.40;100.00;100071.91;6241100;28;20181;-88
2023/06/19 04:51:33;;;;;;;7.00;5.38;;;;;;;20.32;100.00;100077.31;6248507;28;20052;-88
2023/06/19 04:54:35;;;;;;;6.22;5.63;;;;;;;20.30;100.00;100085.44;6259763;28;20057;-88
2023/06/19 04:57:37;;;;;;;6.60;5.45;;;;;;;20.36;100.00;100089.09;6249437;28;20038;-88
2023/06/19 05:00:39;;;;;;;6.55;5.70;;;;;;;20.38;100.00;100098.41;6238352;28;20041;-88
2023/06/19 05:03:41;;;;;;;6.85;5.70;;;;;;;20.40;100.00;100108.72;6255009;28;20037;-88
2023/06/19 05:06:43;;;;;;;7.60;5.63;;;;;;;20.41;100.00;100105.88;6257015;28;20638;-88
2023/06/19 05:09:45;;;;;;;5.47;4.97;;;;;;;20.46;100.00;100105.31;6244233;28;20571;-88
2023/06/19 05:12:47;;;;;;;6.28;5.50;;;;;;;20.50;100.00;100106.53;6230300;28;20041;-88
2023/06/19 05:15:51;;;;;;;6.93;5.45;;;;;;;20.54;100.00;100101.69;6224951;28;20404;-88
2023/06/19 05:18:54;;;;;;;8.95;5.72;;;;;;;20.60;100.00;100107.00;6252506;28;20108;-88
2023/06/19 05:21:56;;;;;;;6.22;5.55;;;;;;;20.71;100.00;100113.50;6240701;28;20044;-88
2023/06/19 05:24:58;;;;;;;6.75;5.78;;;;;;;20.84;100.00;100116.19;6248758;28;20037;-88
2023/06/19 05:28:00;;;;;;;6.32;5.40;;;;;;;21.01;100.00;100113.97;6247811;28;20036;-88
2023/06/19 05:31:06;;;;;;;6.75;6.05;;;;;;;21.18;100.00;100122.31;6253140;28;20045;-88
2023/06/19 05:34:07;;;;;;;8.60;5.90;;;;;;;21.36;100.00;100121.72;6247723;28;20044;-88
2023/06/19 05:37:09;;;;;;;8.05;5.72;;;;;;;21.55;100.00;100119.34;6251868;28;20122;-88
2023/06/19 05:40:12;;;;;;;7.32;5.60;;;;;;;21.72;100.00;100116.09;6242558;28;20045;-88
2023/06/19 05:43:14;;;;;;;6.78;5.60;;;;;;;21.92;100.00;100112.63;6229475;28;20041;-88
2023/06/19 05:46:15;;;;;;;7.22;5.78;;;;;;;22.05;100.00;100112.56;6235527;28;20096;-88
2023/06/19 05:49:17;;;;;;;8.38;5.82;;;;;;;22.04;100.00;100116.25;6234613;28;20057;-88
2023/06/19 05:52:19;;;;;;;7.00;6.00;;;;;;;21.98;100.00;100121.53;6249078;28;20057;-88
2023/06/19 05:55:21;;;;;;;8.35;5.93;;;;;;;21.91;100.00;100121.53;6244038;28;20083;-88
2023/06/19 05:58:25;;;;;;;6.03;5.30;;;;;;;21.88;100.00;100124.56;6243479;28;20191;-89
2023/06/19 06:01:33;;;;;;;7.30;5.88;;;;;;;21.90;100.00;100135.72;6256323;28;20439;-88
2023/06/19 06:04:36;;;;;;;6.28;5.55;;;;;;;21.93;100.00;100141.38;6248778;28;20044;-88
2023/06/19 06:07:38;;;;;;;7.03;6.13;;;;;;;21.99;100.00;100144.25;6237695;28;20050;-88
2023/06/19 06:10:42;;;;;;;6.95;6.07;;;;;;;21.94;100.00;100139.56;6250654;28;20453;-89
2023/06/19 06:13:45;;;;;;;7.05;5.75;;;;;;;21.84;100.00;100142.63;6249560;28;20081;-88
2023/06/19 06:16:47;;;;;;;6.45;5.80;;;;;;;21.76;100.00;100155.19;6241838;28;20171;-88
2023/06/19 06:19:49;;;;;;;6.80;5.68;;;;;;;21.65;100.00;100149.53;6235950;28;20037;-88
2023/06/19 06:22:50;;;;;;;7.30;6.45;;;;;;;21.57;100.00;100144.47;6245324;28;20546;-88
2023/06/19 06:25:52;;;;;;;6.60;6.00;;;;;;;21.59;100.00;100152.16;6249474;28;20069;-88
2023/06/19 06:28:55;;;;;;;8.27;6.18;;;;;;;21.70;100.00;100157.63;6250905;28;20045;-88
2023/06/19 06:32:07;;;;;;;6.80;6.05;;;;;;;21.96;100.00;100163.88;6242122;28;20120;-89
2023/06/19 06:35:09;;;;;;;6.68;5.90;;;;;;;22.25;100.00;100175.84;6234222;28;20049;-88
2023/06/19 06:38:11;;;;;;;6.82;6.13;;;;;;;22.34;100.00;100179.88;6243661;28;20034;-88
2023/06/19 06:41:13;;;;;;;7.55;6.05;;;;;;;22.48;100.00;100174.56;6250599;28;20053;-89
2023/06/19 06:44:14;;;;;;;6.95;5.88;;;;;;;22.66;100.00;100172.06;6251877;28;20135;-88
2023/06/19 06:47:16;;;;;;;6.78;6.15;;;;;;;22.85;100.00;100164.25;6258654;28;20103;-89
2023/06/19 06:50:18;;;;;;;6.53;5.93;;;;;;;22.97;100.00;100173.13;6238277;28;20046;-89
2023/06/19 06:53:20;;;;;;;8.65;6.43;;;;;;;22.96;100.00;100174.97;6246947;28;20045;-89
2023/06/19 06:56:21;;;;;;;6.07;5.47;;;;;;;22.96;100.00;100184.72;6249807;28;20049;-88
2023/06/19 06:59:29;;;;;;;8.25;6.28;;;;;;;22.96;100.00;100177.59;6241913;28;20175;-88
2023/06/19 07:02:31;;;;;;;6.07;5.50;;;;;;;22.93;100.00;100185.13;6250478;28;20060;-88
2023/06/19 07:05:33;;;;;;;8.00;6.25;;;;;;;22.92;100.00;100181.69;6241707;28;20061;-88
2023/06/19 07:08:35;;;;;;;6.65;6.05;;;;;;;23.09;100.00;100187.31;6247788;28;20090;-89
2023/06/19 07:11:36;;;;;;;9.68;6.25;;;;;;;23.42;100.00;100187.09;6245394;28;20034;-88
2023/06/19 07:14:38;;;;;;;6.72;6.10;;;;;;;23.87;100.00;100180.88;6239018;28;20049;-88
2023/06/19 07:17:40;;;;;;;9.27;5.97;;;;;;;24.34;100.00;100189.16;6248820;28;20056;-89
2023/06/19 07:20:42;;;;;;;7.43;6.45;;;;;;;24.76;100.00;100188.53;6248085;28;20053;-88
2023/06/19 07:23:47;;;;;;;8.82;6.55;;;;;;;25.10;100.00;100187.06;6251516;28;20044;-88
2023/06/19 07:26:49;;;;;;;7.15;6.45;;;;;;;25.49;100.00;100192.81;6247328;28;20040;-88
2023/06/19 07:29:51;;;;;;;7.07;6.47;;;;;;;25.69;100.00;100190.69;6252447;28;20466;-88
2023/06/19 07:32:53;;;;;;;9.45;6.70;;;;;;;25.80;100.00;100197.03;6233756;28;20052;-88
2023/06/19 07:35:55;;;;;;;7.88;6.40;;;;;;;25.85;100.00;100202.47;6237451;28;20041;-88
2023/06/19 07:38:56;;;;;;;7.78;6.55;;;;;;;25.85;100.00;100201.66;6239484;28;20068;-87
2023/06/19 07:41:58;;;;;;;7.65;6.45;;;;;;;25.90;100.00;100213.19;6241549;28;20056;-88
2023/06/19 07:45:00;;;;;;;7.45;6.75;;;;;;;25.89;100.00;100213.44;6240928;28;20045;-89
2023/06/19 07:48:02;;;;;;;8.57;6.90;;;;;;;25.70;100.00;100204.75;6240657;28;20643;-88
2023/06/19 07:51:04;;;;;;;7.72;7.03;;;;;;;25.67;100.00;100205.22;6237257;28;20041;-88
2023/06/19 07:54:06;;;;;;;6.80;6.10;;;;;;;25.77;100.00;100205.44;6237608;28;20084;-89
2023/06/19 07:57:08;;;;;;;7.85;6.60;;;;;;;25.88;100.00;100206.50;6245475;28;20123;-89
2023/06/19 08:00:14;;;;;;;8.10;6.15;;;;;;;25.75;100.00;100215.47;6235370;28;20492;-89
2023/06/19 08:03:16;;;;;;;8.50;6.80;;;;;;;25.53;100.00;100210.69;6247027;28;20292;-88
2023/06/19 08:06:17;;;;;;;7.43;6.72;;;;;;;25.53;100.00;100215.19;6243780;28;20073;-88
2023/06/19 08:09:19;;;;;;;7.53;6.72;;;;;;;25.60;100.00;100201.84;6238892;28;20128;-89
2023/06/19 08:12:21;;;;;;;7.75;5.72;;;;;;;25.65;100.00;100209.94;6246655;28;20105;-90
2023/06/19 08:15:23;;;;;;;7.82;6.28;;;;;;;25.86;100.00;100209.38;6252593;28;20060;-90
2023/06/19 08:18:24;;;;;;;6.95;5.53;;;;;;;26.00;100.00;100209.97;6247792;28;20506;-90
2023/06/19 08:21:26;;;;;;;6.90;5.78;;;;;;;26.19;100.00;100213.31;6240206;28;20038;-89
2023/06/19 08:24:28;;;;;;;6.90;5.97;;;;;;;26.35;100.00;100217.91;6238395;28;20064;-89
2023/06/19 08:27:30;;;;;;;6.38;5.78;;;;;;;26.36;100.00;100211.56;6260403;28;20498;-88
2023/06/19 08:30:32;;;;;;;6.40;5.80;;;;;;;26.34;100.00;100211.00;6253513;28;20809;-90
2023/06/19 08:33:37;;;;;;;6.65;5.90;;;;;;;26.20;100.00;100209.63;6245644;28;20044;-89
2023/06/19 08:36:39;;;;;;;6.40;5.80;;;;;;;25.98;100.00;100210.19;6235829;28;20053;-88
2023/06/19 08:39:41;;;;;;;6.72;5.80;;;;;;;25.69;100.00;100205.75;6234980;28;20521;-89
2023/06/19 08:42:43;;;;;;;6.05;5.55;;;;;;;25.60;100.00;100215.91;6243846;28;20041;-90
2023/06/19 08:46:06;;;;;;;6.25;5.60;;;;;;;25.44;100.00;100208.59;6251053;28;20048;-90
2023/06/19 08:49:10;;;;;;;6.97;5.30;;;;;;;25.38;100.00;100212.16;6242878;28;20385;-89
2023/06/19 08:52:12;;;;;;;7.68;5.75;;;;;;;25.53;100.00;100209.91;6244611;28;20041;-88
2023/06/19 08:55:15;;;;;;;6.22;5.63;;;;;;;25.64;100.00;100211.78;6247486;28;20507;-88
2023/06/19 08:58:23;;;;;;;7.78;5.60;;;;;;;25.77;100.00;100219.50;6253848;28;20435;-87
2023/06/19 09:01:26;;;;;;;5.80;5.20;;;;;;;25.81;100.00;100217.19;6238180;28;20161;-90
2023/06/19 09:04:28;;;;;;;10.05;5.88;;;;;;;25.94;100.00;100219.66;6250877;28;20052;-88
2023/06/19 09:07:30;;;;;;;6.50;5.90;;;;;;;26.03;100.00;100228.06;6251091;28;20045;-88
2023/06/19 09:10:32;;;;;;;7.05;6.10;;;;;;;26.13;100.00;100222.19;6238682;28;20167;-87
2023/06/19 09:13:34;;;;;;;6.28;5.68;;;;;;;26.18;100.00;100222.31;6237468;28;20041;-89
2023/06/19 09:16:40;;;;;;;6.43;5.80;;;;;;;26.14;100.00;100226.47;6236907;28;20072;-88
2023/06/19 09:19:50;;;;;;;6.28;5.68;;;;;;;26.07;100.00;100225.78;6237846;28;20482;-89
2023/06/19 09:22:58;;;;;;;7.22;5.80;;;;;;;26.03;100.00;100221.97;6251162;28;20124;-90
2023/06/19 09:26:00;;;;;;;7.93;5.63;;;;;;;26.06;100.00;100229.47;6245279;28;20540;-88
2023/06/19 09:29:12;;;;;;;8.75;6.13;;;;;;;26.25;100.00;100233.63;6246540;28;20092;-89
2023/06/19 09:32:28;;;;;;;6.35;5.45;;;;;;;26.58;100.00;100237.53;6246237;28;20542;-89
2023/06/19 09:35:30;;;;;;;6.13;5.53;;;;;;;26.79;100.00;100236.91;6245560;28;20574;-89
2023/06/19 09:38:39;;;;;;;6.15;5.55;;;;;;;26.92;100.00;100237.66;6238094;28;20367;-89
2023/06/19 09:41:47;;;;;;;6.47;5.82;;;;;;;26.97;100.00;100241.22;6239187;28;20073;-89
2023/06/19 09:44:50;;;;;;;6.07;5.28;;;;;;;27.26;100.00;100243.94;6240230;28;20042;-87
2023/06/19 09:47:58;;;;;;;8.27;5.05;;;;;;;27.36;100.00;100253.94;6256458;28;20319;-87
2023/06/19 09:51:20;;;;;;;10.30;5.57;;;;;;;27.39;100.00;100256.13;6226145;28;20349;-87
2023/06/19 09:54:26;;;;;;;6.47;5.18;;;;;;;27.17;100.00;100259.41;6251499;28;20423;-88
2023/06/19 09:57:29;;;;;;;5.63;4.53;;;;;;;27.18;100.00;100255.75;6258135;28;20562;-88
2023/06/19 10:00:34;;;;;;;8.73;4.75;;;;;;;27.35;100.00;100260.28;6254827;28;20116;-89
2023/06/19 10:03:36;;;;;;;5.40;4.85;;;;;;;27.23;100.00;100257.69;6240412;28;20140;-89
2023/06/19 10:06:46;;;;;;;5.30;4.40;;;;;;;27.33;100.00;100263.19;6253511;28;20054;-92
2023/06/19 10:10:06;;;;;;;5.90;5.13;;;;;;;27.42;100.00;100268.91;6228348;28;20232;-91
2023/06/19 10:13:16;;;;;;;6.10;4.13;;;;;;;27.44;100.00;100272.16;6242608;28;20645;-89
2023/06/19 10:16:24;;;;;;;8.27;3.88;;;;;;;27.41;100.00;100280.59;6233730;28;20049;-89
2023/06/19 10:19:32;;;;;;;8.23;4.20;;;;;;;27.47;100.00;100271.66;6239424;28;20523;-91
2023/06/19 10:22:34;;;;;;;5.07;4.00;;;;;;;27.99;100.00;100273.34;6239520;28;20085;-90
2023/06/19 10:25:39;;;;;;;4.53;4.13;;;;;;;28.20;100.00;100279.78;6238943;28;20056;-89
2023/06/19 10:28:46;;;;;;;4.57;4.13;;;;;;;28.00;100.00;100270.47;6244939;28;20434;-90
2023/06/19 10:31:48;;;;;;;4.50;4.10;;;;;;;27.76;100.00;100268.97;6238552;28;20116;-90
2023/06/19 10:34:50;;;;;;;6.28;4.00;;;;;;;27.77;100.00;100281.22;6237618;28;20124;-89
2023/06/19 10:37:52;;;;;;;4.72;4.25;;;;;;;27.48;100.00;100279.41;6258399;28;20567;-89
2023/06/19 10:40:54;;;;;;;5.00;4.15;;;;;;;27.30;100.00;100274.28;6249502;28;20094;-90
2023/06/19 10:43:58;;;;;;;4.30;3.88;;;;;;;27.54;100.00;100272.31;6243867;28;20041;-91
2023/06/19 10:47:00;;;;;;;3.97;3.60;;;;;;;27.65;100.00;100274.13;6236647;28;20049;-88
2023/06/19 10:50:02;;;;;;;4.05;3.50;;;;;;;27.68;100.00;100276.28;6249428;28;20036;-89
2023/06/19 10:53:04;;;;;;;5.60;3.60;;;;;;;27.85;100.00;100279.00;6241550;28;20052;-90
2023/06/19 10:56:06;;;;;;;4.28;3.38;;;;;;;27.89;100.00;100281.97;6231708;28;20095;-91
2023/06/19 10:59:09;;;;;;;4.22;3.15;;;;;;;28.07;100.00;100275.59;6218454;28;20051;-89
2023/06/19 11:02:11;;;;;;;3.67;3.20;;;;;;;28.11;100.00;100282.84;6243012;28;20638;-90
2023/06/19 11:05:14;;;;;;;4.93;3.08;;;;;;;28.23;100.00;100279.31;6256265;28;20069;-90
2023/06/19 11:08:22;;;;;;;3.58;2.85;;;;;;;28.35;100.00;100282.69;6254569;28;20132;-89
2023/06/19 11:11:37;;;;;;;2.95;2.75;;;;;;;28.49;100.00;100267.97;6246681;28;20044;-91
2023/06/19 11:14:39;;;;;;;4.05;2.70;;;;;;;28.40;98.82;100273.94;6244572;28;20076;-91
2023/06/19 11:17:43;;;;;;;2.45;2.22;;;;;;;28.68;100.00;100275.69;6261559;28;20150;-90
2023/06/19 11:20:50;;;;;;;2.70;2.45;;;;;;;29.12;100.00;100270.34;6248203;28;20041;-90
2023/06/19 11:23:52;;;;;;;2.97;2.25;;;;;;;29.22;90.54;100278.47;6252195;28;20033;-89
2023/06/19 11:26:58;;;;;;;2.88;2.15;;;;;;;29.15;93.87;100278.66;6246054;28;20042;-90
2023/06/19 11:30:03;;;;;;;4.43;2.20;;;;;;;29.20;89.93;100275.25;6238453;28;20360;-89
2023/06/19 11:33:22;;;;;;;2.65;2.10;;;;;;;29.33;88.25;100282.81;6245741;28;20519;-89
2023/06/19 11:36:24;;;;;;;2.53;2.28;;;;;;;29.66;89.48;100275.69;6242590;28;20041;-89
2023/06/19 11:39:27;;;;;;;4.05;2.10;;;;;;;29.58;82.21;100278.78;6230343;28;20209;-89
2023/06/19 11:42:29;;;;;;;2.22;2.03;;;;;;;29.29;82.65;100288.91;6232753;28;20045;-89
2023/06/19 11:45:31;;;;;;;6.22;2.60;;;;;;;29.15;88.48;100291.19;6243276;28;20059;-91
2023/06/19 11:48:37;;;;;;;4.10;2.75;;;;;;;28.66;95.38;100297.22;6209266;28;20049;-90
2023/06/19 11:51:40;;;;;;;2.85;2.50;;;;;;;28.49;99.22;100289.25;6243702;28;20487;-90
2023/06/19 11:54:42;;;;;;;2.92;2.63;;;;;;;28.12;96.67;100294.28;6261838;28;20064;-91
2023/06/19 11:57:44;;;;;;;4.07;3.05;;;;;;;27.60;100.00;100292.66;6260543;28;20045;-91
2023/06/19 12:00:47;;;;;;;3.60;2.83;;;;;;;27.58;100.00;100294.75;6240122;28;20506;-92
2023/06/19 12:03:48;;;;;;;3.40;3.10;;;;;;;28.02;100.00;100296.81;6237819;28;20041;-90
2023/06/19 12:06:52;;;;;;;3.60;3.30;;;;;;;28.17;100.00;100306.88;6256602;28;20388;-89
2023/06/19 12:09:55;;;;;;;4.20;3.42;;;;;;;28.11;100.00;100306.00;6243237;28;20042;-90
2023/06/19 12:12:56;;;;;;;4.18;3.78;;;;;;;28.21;100.00;100297.38;6254880;28;20254;-89
2023/06/19 12:15:58;;;;;;;3.50;3.20;;;;;;;28.58;98.29;100305.66;6252091;28;20049;-91
2023/06/19 12:19:00;;;;;;;3.80;3.50;;;;;;;28.39;94.82;100313.06;6242317;28;20040;-91
2023/06/19 12:22:04;;;;;;;4.18;3.78;;;;;;;28.47;99.11;100309.22;6240203;28;20164;-89
2023/06/19 12:25:06;;;;;;;5.20;4.13;;;;;;;28.43;97.42;100311.53;6245829;28;20044;-90
2023/06/19 12:28:08;;;;;;;4.10;3.75;;;;;;;28.25;97.83;100327.78;6238409;28;20136;-90
2023/06/19 12:31:10;;;;;;;4.10;3.80;;;;;;;28.42;99.22;100304.59;6248699;28;20048;-90
2023/06/19 12:34:12;;;;;;;5.53;4.10;;;;;;;28.49;90.93;100307.91;6242681;28;20072;-91
2023/06/19 12:37:31;;;;;;;4.75;4.35;;;;;;;28.10;94.40;100309.72;6233437;28;20154;-90
2023/06/19 12:40:33;;;;;;;5.18;4.40;;;;;;;28.13;92.69;100319.88;6238508;28;20049;-90
2023/06/19 12:43:36;;;;;;;7.20;4.82;;;;;;;28.03;94.04;100322.38;6246877;28;20534;-90
2023/06/19 12:46:37;;;;;;;4.90;4.50;;;;;;;28.30;95.14;100325.19;6246911;28;20051;-90
2023/06/19 12:49:39;;;;;;;7.88;4.93;;;;;;;28.35;95.59;100322.63;6248518;28;20044;-89
2023/06/19 12:52:41;;;;;;;5.05;4.65;;;;;;;28.59;95.21;100317.91;6242318;28;20072;-89
2023/06/19 12:55:43;;;;;;;7.13;4.45;;;;;;;28.68;92.35;100323.63;6253551;28;20458;-89
2023/06/19 12:59:01;;;;;;;4.93;4.60;;;;;;;28.91;90.38;100328.72;6244392;28;20053;-89
2023/06/19 13:02:04;;;;;;;5.53;5.03;;;;;;;28.94;83.20;100322.91;6247881;28;20493;-89
2023/06/19 13:05:10;;;;;;;5.20;4.80;;;;;;;28.83;91.33;100328.34;6249112;28;20041;-89
2023/06/19 13:08:12;;;;;;;5.00;4.60;;;;;;;29.04;85.80;100316.88;6244231;28;20235;-89
2023/06/19 13:11:14;;;;;;;5.70;5.03;;;;;;;29.00;82.02;100315.78;6239303;28;20084;-89
2023/06/19 13:14:15;;;;;;;5.20;4.70;;;;;;;29.25;82.19;100319.81;6254954;28;20048;-89
2023/06/19 13:17:19;;;;;;;5.00;4.60;;;;;;;29.48;79.00;100324.03;6247849;28;20407;-89
2023/06/19 13:20:24;;;;;;;4.93;4.53;;;;;;;29.68;75.88;100321.59;6243727;28;20210;-88
2023/06/19 13:23:26;;;;;;;5.78;4.80;;;;;;;29.96;73.87;100320.53;6244152;28;20140;-89
2023/06/19 13:26:28;;;;;;;4.43;4.03;;;;;;;30.04;75.09;100324.56;6234994;28;20099;-89
2023/06/19 13:29:30;;;;;;;4.70;4.40;;;;;;;29.78;75.38;100316.34;6244320;28;20072;-89
2023/06/19 13:32:32;;;;;;;4.80;4.32;;;;;;;29.45;77.01;100328.03;6254795;28;20456;-89
2023/06/19 13:35:34;;;;;;;4.57;4.10;;;;;;;29.29;72.70;100334.22;6240720;28;20401;-89
2023/06/19 13:38:36;;;;;;;4.50;4.10;;;;;;;29.16;72.38;100327.44;6241544;28;20115;-90
2023/06/19 13:41:38;;;;;;;4.05;3.65;;;;;;;29.08;72.72;100318.03;6233336;28;20082;-90
2023/06/19 13:44:40;;;;;;;5.45;4.00;;;;;;;29.19;73.82;100327.75;6246232;28;20124;-91
2023/06/19 13:47:42;;;;;;;5.55;3.83;;;;;;;29.45;75.21;100332.56;6243567;28;20046;-88
2023/06/19 13:50:44;;;;;;;9.02;4.07;;;;;;;30.00;72.39;100315.47;6238210;28;20045;-88
2023/06/19 13:53:47;;;;;;;4.53;4.13;;;;;;;30.45;68.47;100314.19;6244051;28;20044;-89
2023/06/19 13:56:51;;;;;;;3.95;3.65;;;;;;;30.66;67.66;100309.78;6235896;28;20100;-89
2023/06/19 13:59:53;;;;;;;4.32;3.92;;;;;;;30.58;67.56;100318.25;6243544;28;20041;-90
2023/06/19 14:02:55;;;;;;;4.68;3.95;;;;;;;30.72;65.98;100327.41;6235790;28;20045;-89
2023/06/19 14:05:57;;;;;;;3.70;3.40;;;;;;;30.68;62.40;100319.13;6241215;28;20052;-89